Time;durP1;ratioP1;P1;durP2;ratioP2;P2;SDS_P1;SDS_P2;PMS_P1;PMS_P2;Temp;Humidity;BMP_temperature;BMP_pressure;BME280_temperature;BME280_humidity;BME280_pressure;Samples;Min_cycle;Max_cycle;Signal;HPM_P1;HPM_P2
2023/02/02 00:00:47;;;;;;;16.70;3.20;;;;;;;3.45;100.00;99488.02;214993;1289;139130;-84
2023/02/02 00:06:49;;;;;;;19.20;3.80;;;;;;;3.47;100.00;99488.55;215220;1290;138797;-86
2023/02/02 00:12:43;;;;;;;;;;;;;;;;;;;;;
2023/02/02 00:18:45;;;;;;;15.10;3.10;;;;;;;3.51;100.00;99484.23;214747;1290;138869;-85
2023/02/02 00:24:38;;;;;;;;;;;;;;;;;;;;;
2023/02/02 00:30:47;;;;;;;18.20;2.70;;;;;;;3.53;100.00;99477.81;215187;1290;138792;-85
2023/02/02 00:36:49;;;;;;;21.50;3.60;;;;;;;3.53;100.00;99476.72;215184;1292;138607;-84
2023/02/02 00:42:53;;;;;;;15.00;2.70;;;;;;;3.53;100.00;99470.17;215575;1288;138445;-84
2023/02/02 00:54:55;;;;;;;11.60;2.50;;;;;;;3.51;100.00;99454.77;215825;1290;98021;-84
2023/02/02 01:00:56;;;;;;;18.30;3.10;;;;;;;3.51;100.00;99451.82;214997;1288;138562;-86
2023/02/02 01:06:58;;;;;;;12.40;1.90;;;;;;;3.51;100.00;99441.02;215356;1288;138650;-85
2023/02/02 01:12:59;;;;;;;15.90;3.10;;;;;;;3.52;100.00;99434.57;215725;1289;138609;-84
2023/02/02 01:19:00;;;;;;;18.70;3.80;;;;;;;3.52;100.00;99433.65;215131;1290;138744;-87
2023/02/02 01:25:00;;;;;;;;;;;;;;;;;;;;;
2023/02/02 01:31:03;;;;;;;13.30;2.20;;;;;;;3.52;100.00;99403.79;215052;1290;138970;-85
2023/02/02 01:37:04;;;;;;;15.00;2.70;;;;;;;3.51;100.00;99395.38;215025;1289;138928;-84
2023/02/02 01:42:58;;;;;;;;;;;;;;;;;;;;;
2023/02/02 01:49:06;;;;;;;11.30;2.30;;;;;;;3.47;100.00;99382.71;215245;1288;138683;-85
2023/02/02 01:55:05;;;;;;;;;;;;;;;;;;;;;
2023/02/02 02:01:06;;;;;;;;;;;;;;;;;;;;;
2023/02/02 02:07:15;;;;;;;;;;;;;;;;;;;;;
2023/02/02 02:19:18;;;;;;;15.10;2.30;;;;;;;3.46;100.00;99328.67;215218;1287;138730;-90
2023/02/02 02:32:12;;;;;;;21.10;2.90;;;;;;;3.42;100.00;99313.54;215920;1290;138597;-86
2023/02/02 02:38:27;;;;;;;14.00;1.90;;;;;;;3.38;100.00;99306.05;215752;1289;138576;-88
2023/02/02 02:44:28;;;;;;;16.60;3.00;;;;;;;3.30;100.00;99284.49;216523;1290;97922;-90
2023/02/02 02:50:29;;;;;;;7.40;1.40;;;;;;;3.24;100.00;99281.58;215861;1288;138397;-88
2023/02/02 03:02:18;;;;;;;15.90;2.60;;;;;;;3.10;100.00;99260.08;214213;1289;98324;-84
2023/02/02 03:08:04;;;;;;;22.40;2.40;;;;;;;3.01;100.00;99238.98;213422;1292;138411;-86
2023/02/02 03:14:08;;;;;;;12.10;2.20;;;;;;;2.93;100.00;99224.23;213806;1289;99291;-85
2023/02/02 03:20:07;;;;;;;13.30;2.40;;;;;;;2.89;100.00;99216.45;213381;1292;138778;-85
2023/02/02 03:26:07;;;;;;;;;;;;;;;;;;;;;
2023/02/02 03:32:08;;;;;;;10.30;1.70;;;;;;;2.89;100.00;99203.17;213505;1292;139330;-85
2023/02/02 03:38:02;;;;;;;15.20;2.80;;;;;;;2.92;100.00;99198.75;213202;1289;139186;-85
2023/02/02 03:44:03;;;;;;;15.30;2.30;;;;;;;2.95;100.00;99193.45;213659;1289;138764;-90
2023/02/02 03:49:47;;;;;;;;;;;;;;;;;;;;;
2023/02/02 03:55:40;;;;;;;;;;;;;;;;;;;;;
2023/02/02 04:01:42;;;;;;;10.20;2.10;;;;;;;3.02;100.00;99201.45;213425;1290;138487;-89
2023/02/02 04:07:26;;;;;;;14.30;2.20;;;;;;;3.06;100.00;99199.11;213004;1290;139340;-86
2023/02/02 04:13:07;;;;;;;16.20;2.60;;;;;;;3.10;100.00;99200.27;214140;1289;138410;-86
2023/02/02 04:19:08;;;;;;;9.00;2.10;;;;;;;3.14;100.00;99198.89;213174;1290;138629;-87
2023/02/02 04:25:13;;;;;;;8.30;1.50;;;;;;;3.17;100.00;99203.85;213617;1292;138436;-85
2023/02/02 04:31:13;;;;;;;10.20;2.70;;;;;;;3.20;100.00;99207.17;213456;1288;138712;-85
2023/02/02 04:37:14;;;;;;;7.80;2.20;;;;;;;3.24;100.00;99214.80;213110;1289;138688;-89
2023/02/02 04:42:56;;;;;;;7.30;2.00;;;;;;;3.26;100.00;99228.52;213678;1292;138364;-83
2023/02/02 04:48:47;;;;;;;;;;;;;;;;;;;;;
2023/02/02 04:54:49;;;;;;;5.80;1.40;;;;;;;3.33;100.00;99238.96;213785;1289;138127;-86
2023/02/02 05:00:47;;;;;;;6.70;1.00;;;;;;;3.33;100.00;99246.52;213138;1289;139010;-84
2023/02/02 05:06:27;;;;;;;;;;;;;;;3.33;100.00;99260.27;213344;1292;138417;-84
2023/02/02 05:12:29;;;;;;;4.40;0.80;;;;;;;3.33;100.00;99279.60;213955;1289;126419;-83
2023/02/02 05:18:55;;;;;;;3.10;0.90;;;;;;;3.33;100.00;99294.75;213234;1292;138416;-85
2023/02/02 05:30:31;;;;;;;;;;;;;;;;;;;;;
2023/02/02 05:36:33;;;;;;;3.90;1.00;;;;;;;3.36;100.00;99327.70;213055;1290;139404;-84
2023/02/02 05:42:27;;;;;;;5.50;1.10;;;;;;;3.36;100.00;99346.41;213620;1292;138263;-84
2023/02/02 05:48:28;;;;;;;1.80;0.90;;;;;;;3.36;100.00;99353.86;213052;1289;138648;-84
2023/02/02 05:54:29;;;;;;;3.90;0.90;;;;;;;3.36;100.00;99369.56;213515;1292;138393;-85
2023/02/02 06:06:15;;;;;;;3.40;1.30;;;;;;;3.37;100.00;99407.81;213535;1289;138840;-84
2023/02/02 06:12:17;;;;;;;3.50;1.10;;;;;;;3.38;100.00;99427.02;213898;1290;138907;-85
2023/02/02 06:18:15;;;;;;;3.60;1.10;;;;;;;3.38;100.00;99440.94;213476;1292;138808;-86
2023/02/02 06:24:16;;;;;;;8.00;3.00;;;;;;;3.35;100.00;99459.35;214190;1290;138571;-85
2023/02/02 06:30:17;;;;;;;15.40;4.50;;;;;;;3.33;100.00;99478.56;213103;1293;138701;-84
2023/02/02 06:36:08;;;;;;;13.60;5.20;;;;;;;3.32;100.00;99492.21;213086;1289;139005;-84
2023/02/02 06:42:09;;;;;;;10.60;3.20;;;;;;;3.32;100.00;99502.39;213690;1290;140889;-85
2023/02/02 06:48:10;;;;;;;;;;;;;;;;;;;;;
2023/02/02 06:53:54;;;;;;;12.60;5.20;;;;;;;3.31;100.00;99543.16;213767;1293;138532;-84
2023/02/02 06:59:55;;;;;;;11.30;3.50;;;;;;;3.30;100.00;99561.83;213428;1292;139172;-85
2023/02/02 07:05:31;;;;;;;17.90;8.40;;;;;;;3.27;100.00;99583.92;213833;1288;138557;-86
2023/02/02 07:11:31;;;;;;;;;;;;;;;;;;;;;
2023/02/02 07:17:21;;;;;;;28.20;12.60;;;;;;;3.28;100.00;99611.05;213176;1288;138729;-83
2023/02/02 07:23:22;;;;;;;16.50;7.50;;;;;;;3.29;100.00;99625.52;213787;1290;138729;-85
2023/02/02 07:29:07;;;;;;;14.50;6.10;;;;;;;3.27;100.00;99635.43;213375;1292;138850;-88
2023/02/02 07:34:58;;;;;;;;;;;;;;;;;;;;;
2023/02/02 07:40:41;;;;;;;;;;;;;;;;;;;;;
2023/02/02 07:46:26;;;;;;;;;;;;;;;;;;;;;
2023/02/02 07:52:16;;;;;;;16.30;6.80;;;;;;;3.27;100.00;99680.18;213812;1290;138577;-85
2023/02/02 07:58:10;;;;;;;;;;;;;;;;;;;;;
2023/02/02 08:04:12;;;;;;;8.40;3.50;;;;;;;3.24;100.00;99722.43;213903;1292;139117;-86
2023/02/02 08:09:50;;;;;;;;;;;;;;;;;;;;;
2023/02/02 08:15:40;;;;;;;9.90;3.20;;;;;;;3.24;100.00;99747.29;214042;1293;138564;-89
2023/02/02 08:21:42;;;;;;;10.00;3.00;;;;;;;3.23;100.00;99765.76;213503;1290;138412;-88
2023/02/02 08:27:25;;;;;;;6.90;2.70;;;;;;;3.23;100.00;99780.81;213413;1292;138976;-87
2023/02/02 08:33:18;;;;;;;;;;;;;;;;;;;;;
2023/02/02 08:39:16;;;;;;;8.00;2.80;;;;;;;3.26;100.00;99796.04;213190;1293;138714;-90
2023/02/02 08:45:11;;;;;;;;;;;;;;;;;;;;;
2023/02/02 08:51:14;;;;;;;;;;;;;;;;;;;;;
2023/02/02 09:09:18;;;;;;;7.10;2.60;;;;;;;3.46;100.00;99885.24;215887;1287;97958;-89
2023/02/02 09:15:19;;;;;;;6.40;2.80;;;;;;;3.49;100.00;99896.60;216150;1286;138338;-86
2023/02/02 09:27:22;;;;;;;5.90;2.00;;;;;;;3.58;100.00;99928.27;215613;1287;138945;-85
2023/02/02 09:33:23;;;;;;;6.80;2.90;;;;;;;3.63;100.00;99947.51;216196;1288;138530;-88
2023/02/02 09:39:22;;;;;;;;;;;;;;;;;;;;;
2023/02/02 09:45:23;;;;;;;;;;;;;;;;;;;;;
2023/02/02 09:51:28;;;;;;;6.30;2.40;;;;;;;3.89;100.00;99965.39;215875;1289;138572;-85
2023/02/02 09:57:30;;;;;;;4.90;2.10;;;;;;;4.02;100.00;99975.57;215576;1288;138482;-85
2023/02/02 10:03:31;;;;;;;7.40;2.10;;;;;;;4.13;100.00;99979.26;215970;1291;138335;-88
2023/02/02 10:15:35;;;;;;;10.50;1.60;;;;;;;4.31;100.00;100005.45;216397;1288;138710;-87
2023/02/02 10:21:45;;;;;;;;;;;;;;;;;;;;;
2023/02/02 10:27:52;;;;;;;;;;;;;;;;;;;;;
2023/02/02 10:34:10;;;;;;;7.50;1.70;;;;;;;4.40;100.00;100034.42;215797;1291;138530;-88
2023/02/02 10:40:18;;;;;;;7.40;2.00;;;;;;;4.47;100.00;100037.67;215271;1288;138641;-86
2023/02/02 10:46:19;;;;;;;6.80;1.70;;;;;;;4.61;100.00;100041.04;215154;1288;139074;-87
2023/02/02 10:52:20;;;;;;;5.40;1.50;;;;;;;4.76;100.00;100045.28;215787;1292;138938;-83
2023/02/02 10:58:23;;;;;;;6.10;1.20;;;;;;;4.85;100.00;100056.05;215307;1288;138767;-90
2023/02/02 11:10:27;;;;;;;11.10;1.20;;;;;;;4.80;100.00;100083.31;215631;1291;138859;-88
2023/02/02 11:16:29;;;;;;;;;;;;;;;;;;;;;
2023/02/02 11:22:37;;;;;;;5.60;1.70;;;;;;;4.76;100.00;100109.01;215743;1288;138639;-84
2023/02/02 11:28:41;;;;;;;6.20;1.80;;;;;;;4.83;100.00;100117.92;215063;1287;138688;-84
2023/02/02 11:34:42;;;;;;;6.20;1.40;;;;;;;4.85;100.00;100128.87;215809;1288;138580;-87
2023/02/02 11:40:59;;;;;;;3.60;1.10;;;;;;;4.94;100.00;100137.94;215255;1291;139023;-84
2023/02/02 11:47:05;;;;;;;7.40;2.10;;;;;;;4.96;100.00;100143.61;214808;1288;138597;-81
2023/02/02 11:53:07;;;;;;;6.20;1.80;;;;;;;4.96;100.00;100155.48;215983;1287;138619;-84
2023/02/02 11:59:14;;;;;;;4.60;1.60;;;;;;;4.93;100.00;100156.45;215377;1288;138900;-84
2023/02/02 12:05:18;;;;;;;4.30;1.50;;;;;;;4.84;100.00;100165.30;215857;1291;138560;-83
2023/02/02 12:11:31;;;;;;;5.70;1.60;;;;;;;4.71;100.00;100167.94;215098;1288;138762;-87
2023/02/02 12:17:37;;;;;;;;;;;;;;;;;;;;;
2023/02/02 12:23:40;;;;;;;3.90;1.30;;;;;;;4.43;99.90;100190.38;215819;1289;138782;-85
2023/02/02 12:35:46;;;;;;;4.60;1.40;;;;;;;4.12;99.65;100208.52;215886;1288;138545;-82
2023/02/02 12:41:53;;;;;;;4.00;1.20;;;;;;;4.05;100.00;100212.56;215787;1289;138363;-83
2023/02/02 12:48:12;;;;;;;3.40;1.10;;;;;;;4.04;100.00;100208.45;215288;1288;138464;-81
2023/02/02 12:54:16;;;;;;;3.90;1.10;;;;;;;4.06;100.00;100211.59;215846;1292;138508;-82
2023/02/02 13:00:25;;;;;;;6.50;1.50;;;;;;;4.11;100.00;100225.44;215322;1286;139264;-82
2023/02/02 13:06:37;;;;;;;2.90;1.20;;;;;;;4.14;100.00;100234.89;215138;1292;138810;-82
2023/02/02 13:12:47;;;;;;;2.50;1.10;;;;;;;4.17;100.00;100246.95;215864;1292;139035;-89
2023/02/02 13:18:54;;;;;;;4.70;1.60;;;;;;;4.17;100.00;100262.21;215260;1289;138634;-83
2023/02/02 13:24:58;;;;;;;4.60;1.50;;;;;;;4.16;99.81;100271.96;215738;1289;138405;-82
2023/02/02 13:31:08;;;;;;;2.40;0.90;;;;;;;4.14;99.57;100283.20;215247;1291;138706;-85
2023/02/02 13:37:09;;;;;;;47.60;18.60;;;;;;;4.12;99.45;100298.45;215201;1292;138380;-84
2023/02/02 13:43:13;;;;;;;4.20;1.60;;;;;;;4.09;99.56;100316.06;215856;1290;138543;-84
2023/02/02 13:49:20;;;;;;;9.00;4.00;;;;;;;4.03;99.70;100331.44;215246;1290;138241;-86
2023/02/02 13:55:19;;;;;;;;;;;;;;;;;;;;;
2023/02/02 14:01:28;;;;;;;6.70;1.90;;;;;;;4.03;99.83;100349.95;215374;1289;138501;-84
2023/02/02 14:07:29;;;;;;;4.60;1.80;;;;;;;3.97;99.71;100361.15;215262;1289;138413;-82
2023/02/02 14:19:56;;;;;;;4.40;2.00;;;;;;;3.88;99.97;100393.14;215369;1288;138634;-84
2023/02/02 14:26:09;;;;;;;5.90;2.10;;;;;;;3.85;100.00;100414.66;215720;1289;138299;-83
2023/02/02 14:32:17;;;;;;;7.90;2.80;;;;;;;3.84;100.00;100438.45;216505;1288;138914;-81
2023/02/02 14:38:36;;;;;;;6.40;2.40;;;;;;;3.80;100.00;100451.77;215493;1288;138986;-84
2023/02/02 14:44:29;;;;;;;;;;;;;;;;;;;;;
2023/02/02 14:50:23;;;;;;;;;;;;;;;;;;;;;
2023/02/02 14:56:32;;;;;;;6.80;2.40;;;;;;;3.39;100.00;100505.73;215127;1290;139073;-82
2023/02/02 15:02:52;;;;;;;9.70;2.90;;;;;;;3.23;100.00;100520.97;215909;1288;138286;-84
2023/02/02 15:21:13;;;;;;;9.50;4.00;;;;;;;2.94;100.00;100569.10;215306;1288;138455;-83
2023/02/02 15:27:14;;;;;;;12.40;3.80;;;;;;;2.88;100.00;100579.45;215344;1288;141715;-84
2023/02/02 15:33:14;;;;;;;;;;;;;;;;;;;;;
2023/02/02 15:39:17;;;;;;;9.40;3.70;;;;;;;2.83;100.00;100606.41;215305;1288;138487;-82
2023/02/02 15:45:21;;;;;;;11.80;5.00;;;;;;;2.80;100.00;100619.39;215669;1288;112730;-82
2023/02/02 15:51:23;;;;;;;;;;;;;;;;;;;;;
2023/02/02 15:57:26;;;;;;;14.80;5.10;;;;;;;2.68;100.00;100648.20;215237;1289;139771;-83
2023/02/02 16:03:33;;;;;;;12.20;5.50;;;;;;;2.64;100.00;100665.02;215873;1291;111598;-86
2023/02/02 16:15:33;;;;;;;;;;;;;;;;;;;;;
2023/02/02 16:21:37;;;;;;;7.20;2.40;;;;;;;2.33;100.00;100728.42;215672;1288;138365;-81
2023/02/02 16:27:38;;;;;;;24.00;12.80;;;;;;;2.26;100.00;100735.39;215406;1288;138328;-82
2023/02/02 16:33:39;;;;;;;8.70;4.00;;;;;;;2.21;100.00;100748.25;215916;1287;111800;-83
2023/02/02 16:39:40;;;;;;;13.20;4.70;;;;;;;2.15;100.00;100760.67;215432;1288;139482;-83
2023/02/02 16:45:42;;;;;;;13.20;4.70;;;;;;;2.10;100.00;100775.92;215700;1285;138816;-82
2023/02/02 16:57:50;;;;;;;15.60;6.20;;;;;;;1.99;100.00;100800.70;215665;1286;138835;-82
2023/02/02 17:03:51;;;;;;;17.10;6.40;;;;;;;1.98;100.00;100819.52;216127;1288;103841;-83
2023/02/02 17:09:55;;;;;;;15.10;6.30;;;;;;;1.94;100.00;100833.56;215085;1288;140479;-84
2023/02/02 17:15:56;;;;;;;8.70;3.10;;;;;;;1.90;100.00;100850.49;215586;1287;105061;-83
2023/02/02 17:21:58;;;;;;;20.70;6.80;;;;;;;1.85;100.00;100855.27;215842;1289;138076;-84
2023/02/02 17:28:02;;;;;;;13.60;4.10;;;;;;;1.78;100.00;100869.89;215294;1288;138497;-83
2023/02/02 17:34:03;;;;;;;19.50;5.50;;;;;;;1.70;100.00;100894.98;215774;1290;103716;-83
2023/02/02 17:39:57;;;;;;;;;;;;;;;;;;;;;
2023/02/02 17:46:09;;;;;;;16.70;4.30;;;;;;;1.58;100.00;100928.58;215786;1287;139063;-80
2023/02/02 17:52:10;;;;;;;11.50;3.70;;;;;;;1.53;100.00;100954.78;215573;1288;138190;-82
2023/02/02 17:58:03;;;;;;;;;;;;;;;;;;;;;
2023/02/02 18:04:13;;;;;;;40.00;17.20;;;;;;;1.42;100.00;100980.20;215667;1286;138591;-83
2023/02/02 18:16:15;;;;;;;18.20;6.40;;;;;;;1.30;100.00;100998.89;215507;1286;139610;-81
2023/02/02 18:22:15;;;;;;;;;;;;;;;;;;;;;
2023/02/02 18:28:17;;;;;;;;;;;;;;;;;;;;;
2023/02/02 18:40:21;;;;;;;9.10;3.50;;;;;;;0.92;100.00;101017.12;213393;1290;139014;-87
2023/02/02 18:52:23;;;;;;;12.20;4.60;;;;;;;0.66;100.00;101040.51;213924;1291;106459;-86
2023/02/02 18:58:26;;;;;;;12.50;4.60;;;;;;;0.54;100.00;101043.02;213436;1289;140113;-88
2023/02/02 19:04:28;;;;;;;16.40;6.40;;;;;;;0.43;100.00;101049.17;214104;1290;105903;-86
2023/02/02 19:10:29;;;;;;;16.60;7.00;;;;;;;0.33;100.00;101060.59;213743;1291;138415;-87
2023/02/02 19:16:23;;;;;;;;;;;;;;;;;;;;;
2023/02/02 19:22:29;;;;;;;12.20;4.30;;;;;;;0.16;100.00;101072.38;213868;1290;138514;-86
2023/02/02 19:28:27;;;;;;;16.50;4.60;;;;;;;0.05;100.00;101073.98;213302;1290;138976;-85
2023/02/02 19:34:39;;;;;;;14.00;4.70;;;;;;;-0.03;100.00;101076.38;212774;1295;138303;-86
2023/02/02 19:40:49;;;;;;;16.30;5.30;;;;;;;-0.12;100.00;101081.04;212271;1297;138813;-84
2023/02/02 19:46:50;;;;;;;16.70;8.00;;;;;;;-0.20;100.00;101088.23;212344;1294;139764;-86
2023/02/02 19:59:01;;;;;;;26.10;13.20;;;;;;;-0.41;100.00;101115.41;213290;1289;139268;-86
2023/02/02 20:04:55;;;;;;;;;;;;;;;;;;;;;
2023/02/02 20:11:00;;;;;;;31.10;15.50;;;;;;;-0.63;100.00;101113.94;213624;1288;139184;-85
2023/02/02 20:17:01;;;;;;;25.60;13.00;;;;;;;-0.76;100.00;101108.67;213580;1287;139415;-86
2023/02/02 20:23:01;;;;;;;22.70;9.60;;;;;;;-0.88;100.00;101118.23;214294;1290;243292;-85
2023/02/02 20:29:05;;;;;;;17.40;7.90;;;;;;;-0.98;100.00;101130.81;213608;1287;139472;-85
2023/02/02 20:35:06;;;;;;;15.80;6.40;;;;;;;-1.10;100.00;101137.02;214200;1288;101533;-84
2023/02/02 20:41:08;;;;;;;16.30;6.90;;;;;;;-1.20;100.00;101142.98;213475;1292;140842;-86
2023/02/02 20:47:08;;;;;;;18.30;6.90;;;;;;;-1.31;100.00;101148.30;213794;1289;139301;-85
2023/02/02 20:53:13;;;;;;;17.80;6.80;;;;;;;-1.39;100.00;101149.34;214362;1291;112829;-85
2023/02/02 20:59:11;;;;;;;16.10;7.50;;;;;;;-1.44;100.00;101167.09;213878;1289;139240;-85
2023/02/02 21:05:12;;;;;;;16.60;7.40;;;;;;;-1.48;100.00;101169.77;214173;1292;139118;-84
2023/02/02 21:11:14;;;;;;;17.20;7.60;;;;;;;-1.50;100.00;101181.64;213692;1289;139076;-84
2023/02/02 21:17:08;;;;;;;13.70;6.00;;;;;;;-1.52;100.00;101188.03;213366;1292;139452;-84
2023/02/02 21:23:09;;;;;;;14.30;5.90;;;;;;;-1.54;100.00;101182.36;213665;1290;138784;-85
2023/02/02 21:29:10;;;;;;;18.20;6.90;;;;;;;-1.53;100.00;101183.11;213447;1289;139662;-84
2023/02/02 21:41:04;;;;;;;;;;;;;;;;;;;;;
2023/02/02 21:47:19;;;;;;;25.10;8.40;;;;;;;-1.48;100.00;101180.66;214010;1289;140963;-84
2023/02/02 21:53:20;;;;;;;22.10;7.50;;;;;;;-1.47;100.00;101177.75;214371;1287;97958;-84
2023/02/02 21:59:24;;;;;;;28.00;9.90;;;;;;;-1.47;100.00;101180.55;214451;1292;140132;-84
2023/02/02 22:05:26;;;;;;;21.20;8.40;;;;;;;-1.48;100.00;101172.08;214334;1287;97994;-84
2023/02/02 22:11:52;;;;;;;23.40;7.70;;;;;;;-1.50;100.00;101173.98;209695;1290;5404209;-84
2023/02/02 22:17:29;;;;;;;25.30;9.50;;;;;;;-1.54;100.00;101174.93;213504;1292;141501;-85
2023/02/02 22:35:41;;;;;;;19.90;7.40;;;;;;;-1.73;100.00;101178.74;214174;1288;111592;-85
2023/02/02 22:59:46;;;;;;;14.50;5.30;;;;;;;-1.99;100.00;101209.98;213424;1288;139343;-86
2023/02/02 23:05:47;;;;;;;16.00;5.40;;;;;;;-2.04;100.00;101218.95;213909;1289;139170;-86
2023/02/02 23:11:48;;;;;;;15.00;6.10;;;;;;;-2.10;100.00;101226.86;214349;1287;107058;-85
2023/02/02 23:23:50;;;;;;;19.90;6.20;;;;;;;-2.18;100.00;101223.70;213890;1288;139036;-87
2023/02/02 23:29:51;;;;;;;11.80;5.40;;;;;;;-2.20;100.00;101214.21;213455;1290;139732;-88
2023/02/02 23:35:52;;;;;;;14.80;5.20;;;;;;;-2.23;100.00;101208.34;214244;1290;139298;-87
2023/02/02 23:41:54;;;;;;;17.60;5.90;;;;;;;-2.23;100.00;101203.55;214174;1290;138867;-88
2023/02/02 23:47:45;;;;;;;13.00;4.90;;;;;;;-2.21;100.00;101202.56;213434;1293;139358;-87
2023/02/02 23:53:46;;;;;;;17.70;5.90;;;;;;;-2.19;100.00;101192.16;214261;1289;138754;-87
2023/02/02 23:59:47;;;;;;;18.80;5.90;;;;;;;-2.14;100.00;101193.70;213786;1290;139227;-87
